Pagina principale
METAR-TAF:

METAR-TAF

Aeroporti :

Aeroporto di Firenze-Peretola

Firenze, Italia

latitudine: 43-48N, longitudine: 011-12E, altezza: 40 m

Osservazione

Il bollettino è stato emesso 42 minuti fa, alle 01:50 UTC
Vento 3 kt da sud/sud-ovest
Temperature 15°C
Umidità 55%
Pressione 1013 hPa
Visibilità 10 km o più
nessuna nube inferiore a 1500 m e nessun cumulonembo

METAR: LIRQ 220150Z 20003KT CAVOK 15/06 Q1013

Ora: 04:32 (02:32 UTC)

Previsione

Il bollettino è stato emesso 3 ore e 32 minuti fa, alle 23:00 UTC
Previsione valida dal 22 alle 00 UTC al 22 alle 24 UTC
Vento 10 kt da nord-est
Visibilità 10 km o più
Nubi sparse ad un'altezza di 4000 ft
Temporaneamente
dal 22 alle 14 UTC al 22 alle 18 UTC
Vento 15 kt da nord-est con raffiche fino a 25 kt
pioggia
Temporaneamente
dal 22 alle 18 UTC al 22 alle 24 UTC
temporale, pioggia

TAF: LIRQ 212300Z 2200/2224 04010KT 9999 SCT040 TEMPO 2214/2218 04015G25KT RA TEMPO 2218/2224 TSRA

Osservazioni e previsioni meteorologiche di più di 4000 aeroporti (messaggi METAR e TAF).

Le stazioni disponibili sono rappresentate dai dischi gialli e rossi sulla carta.

Puntare il mouse per vedere il nome della stazione.

Clicca sopra per visualizzare le osservazioni e previsioni meteorologiche.

Per cambiare la mappa : fare clic sui pulsanti verdi con una croce nera per ingrandire, il pulsante verde con un trattino per diminuire, o sulla freccia verde per le mappe adiacenti.


METAR-TAF: